Flight Track Log - Related Links

Times and Time Zones

All times are in EDT time to prevent confusion due to time zone crossing. See the SKW6338 flight status page for this flight to view local times or setup timezone preferences in your user account.

Time Position Orientation Groundspeed Altitude Reporting Facility
EDT Latitude Longitude Course Direction KTS MPH feet Rate Location/Type
Mon 07:07:10 PM 33.9167 -118.4667 140° Southeast 196 226 3,000  Level Southern California TRACON
Mon 07:08:10 PM 33.8667 -118.4833 195° South 190 219 4,500 1,438 Climbing Southern California TRACON
Mon 07:09:00 PM 33.7424 -118.2032 140° Southeast  Level Estimated
Mon 07:09:11 PM 33.8122 -118.4708 169° South 195 224 5,900  Level Los Angeles Center
Mon 07:10:00 PM 33.6756 -118.1351 139° Southeast  Level Estimated
Mon 07:10:13 PM 33.7578 -118.4561 167° South 203 234 7,000  Level Los Angeles Center
Mon 07:11:00 PM 33.6091 -118.0668 139° Southeast  Level FlightAware Approximate
Mon 07:11:15 PM 33.6997 -118.4094 146° Southeast 212 244 8,400  Level Los Angeles Center
Mon 07:12:00 PM 33.5425 -117.9986 140° Southeast  Level FlightAware Approximate
Mon 07:12:17 PM 33.6619 -118.3500 127° Southeast 225 259 8,900  Level Los Angeles Center
Mon 07:13:19 PM 33.6242 -118.2831 124° Southeast 238 274 9,000 48 Climbing Los Angeles Center
Mon 07:14:21 PM 33.5836 -118.2156 126° Southeast 245 282 9,000  Level Los Angeles Center
Mon 07:15:23 PM 33.5381 -118.1361 125° Southeast 245 282 9,000  Level Los Angeles Center
Mon 07:16:25 PM 33.5019 -118.0683 123° Southeast 242 278 9,000  Level Los Angeles Center
Mon 07:17:27 PM 33.4653 -118.0025 124° Southeast 241 277 9,000  Level Los Angeles Center
Mon 07:18:29 PM 33.4272 -117.9347 124° Southeast 243 280 9,000  Level Los Angeles Center
Mon 07:19:31 PM 33.3906 -117.8694 124° Southeast 241 277 9,000  Level Los Angeles Center
Mon 07:20:33 PM 33.3531 -117.8039 124° Southeast 240 276 9,000  Level Los Angeles Center
Mon 07:21:35 PM 33.3086 -117.7247 124° Southeast 241 277 9,000  Level Los Angeles Center
Mon 07:22:37 PM 33.2711 -117.6581 124° Southeast 241 277 9,000  Level Los Angeles Center
Mon 07:23:14 PM 33.2500 -117.6167 121° Southeast 240 276 9,000  Level Southern California TRACON
Mon 07:24:15 PM 33.2167 -117.5500 121° Southeast 239 275 9,000 -99 Level Southern California TRACON
Mon 07:25:15 PM 33.1500 -117.5000 148° Southeast 249 287 8,800 -400 Descending Southern California TRACON
Mon 07:26:15 PM 33.1000 -117.4500 140° Southeast 258 297 8,200 -533 Descending Southern California TRACON
Mon 07:26:45 PM 33.0736 -117.4392 161° South 257 296 8,000 -587 Descending Los Angeles Center
Mon 07:27:47 PM 32.9994 -117.3833 148° Southeast 263 303 7,300 -600 Descending Los Angeles Center
Mon 07:28:15 PM 32.9667 -117.3667 157° South 264 304 7,100 -409 Descending Southern California TRACON
Mon 07:29:15 PM 32.9167 -117.3000 132° Southeast 256 295 6,700 -650 Descending Southern California TRACON
Mon 07:30:15 PM 32.8667 -117.2500 140° Southeast 247 284 5,800 -796 Descending Southern California TRACON
Mon 07:30:53 PM 32.8478 -117.2103 120° Southeast 250 288 5,400 -485 Descending Los Angeles Center
Mon 07:31:54 PM 32.8042 -117.1464 129° Southeast 234 269 5,000 -195 Descending Los Angeles Center
Mon 07:32:56 PM 32.7681 -117.0928 129° Southeast 215 247 5,000  Level Los Angeles Center
Mon 07:33:58 PM 32.7569 -117.0264 101° East 210 242 5,000 -435 Level Los Angeles Center
Mon 07:35:00 PM 32.7383 -116.9661 110° East 199 229 4,100 -484 Descending Los Angeles Center
Mon 07:36:02 PM 32.6861 -116.9764 189° South 203 234 4,000 -677 Descending Los Angeles Center
Mon 07:37:04 PM 32.6950 -117.0494 278° West 198 228 2,700 -1,219 Descending Los Angeles Center
Mon 07:38:10 PM 32.7167 -117.1000 297° West 133 153 1,400 -1,182 Descending Southern California TRACON

Login

Don't have an account? Register now (free) for customized features, flight alerts, and more!